Claysburg, PA

5:44 PM EDT on August 20, 2014 (GMT -0400)
Johnstown-Cambria County | Change Station
CLOSE
Current Station
Airport
Location: Johnstown,
Elevation: 2283 ft
Nearby Weather Stations

Elev 2283 ft 40.32 °N, 78.83 °W | Updated 50 minutes ago

Mostly Cloudy
Mostly Cloudy
75 °F
Feels Like 75 °F
N
5
Wind Variable Wind from West

Today
High -- | Low -- °F
--% Chance of Precip.
Yesterday
High -- | Low -- °F
Precip. -- in
6:29 AM 8:03 PM
Waning Crescent, 19% visible
Pressure 29.97 in
Visibility 10.0 miles
Clouds Scattered Clouds 3200 ft
Mostly Cloudy 6000 ft
Mostly Cloudy 7000 ft
Dew Point 64 °F
Humidity 69%
Rainfall 0.67 in
Snow Depth Not available.
UV 2 out of 12
Pollen 8.50 out of 12
Air Quality Not available.
Flu Activity Not available.
METAR KJST 202054Z AUTO 28004KT 10SM SCT032 BKN060 BKN070 24/18 A3001 RMK AO2 SLP149 T02390178 53005

More Conditions Fewer Conditions

Pressure 29.97 in
Visibility 10.0 miles
Clouds Scattered Clouds 3200 ft
Mostly Cloudy 6000 ft
Mostly Cloudy 7000 ft
Dew Point 64 °F
Humidity 69%
Rainfall 0.67 in
Snow Depth Not available.
UV 2 out of 12
Pollen 8.50 out of 12
Air Quality Not available.
Flu Activity Not available.
METAR KJST 202054Z AUTO 28004KT 10SM SCT032 BKN060 BKN070 24/18 A3001 RMK AO2 SLP149 T02390178 53005

More Conditions Fewer Conditions

Nowcast | as of 5:31 PM EDT on August 20, 2014

Widely scattered showers will continue to push slowly eastward across the area early this evening. A stray downpour remains possible.

×

10-Day Weather Forecast

Almanac

Astronomy

Aug. 20, 2014 Rise Set
Actual Time 6:29 AM EDT 8:03 PM EDT
Civil Twilight 6:00 AM EDT 8:32 PM EDT
Nautical Twilight 5:26 AM EDT 9:07 PM EDT
Astronomical Twilight 4:49 AM EDT 9:43 PM EDT
Moon 2:07 AM EDT 4:47 PM EDT
Length of Visible Light 14h 31m
Length of Day
13h 34m
Tomorrow will be 2m 26s shorter.
Waning Crescent, 19% of the Moon is Illuminated
Today
Waning Crescent
Aug 25
New
Sep 2
First Quarter
Sep 8
Full
Sep 15
Last Quarter

Today's Extremes

State Highs State Lows

Community

WunderPhotos

Upload Photos

1,745,768 photos uploaded!

WunderBlogs® & News

Nearby

Snow Depth

Station Depth Elevation
No new snow has been reported.

Earthquake Activity

City Distance Mag. Time & Date
No recent earthquake activity has been reported nearby.
Minimum magnitude displayed is 2.5.

Coastal Water Temperatures

Place Temperature
No Stations Reporting

Nearby Weather Stations